sensor_id;sensor_type;location;lat;lon;timestamp;P1;durP1;ratioP1;P2;durP2;ratioP2
22531;SDS011;11432;46.924;7.114;2023-07-13T00:01:25;6.18;;;2.75;;
22531;SDS011;11432;46.924;7.114;2023-07-13T00:03:51;6.10;;;2.60;;
22531;SDS011;11432;46.924;7.114;2023-07-13T00:06:17;6.60;;;2.60;;
22531;SDS011;11432;46.924;7.114;2023-07-13T00:08:44;6.97;;;2.58;;
22531;SDS011;11432;46.924;7.114;2023-07-13T00:11:10;5.60;;;2.42;;
22531;SDS011;11432;46.924;7.114;2023-07-13T00:13:36;6.85;;;2.35;;
22531;SDS011;11432;46.924;7.114;2023-07-13T00:16:04;4.40;;;2.72;;
22531;SDS011;11432;46.924;7.114;2023-07-13T00:18:30;5.95;;;2.35;;
22531;SDS011;11432;46.924;7.114;2023-07-13T00:20:56;4.93;;;2.53;;
22531;SDS011;11432;46.924;7.114;2023-07-13T00:23:29;8.18;;;2.20;;
22531;SDS011;11432;46.924;7.114;2023-07-13T00:25:56;4.72;;;2.00;;
22531;SDS011;11432;46.924;7.114;2023-07-13T00:28:22;4.72;;;1.98;;
22531;SDS011;11432;46.924;7.114;2023-07-13T00:30:48;6.60;;;2.20;;
22531;SDS011;11432;46.924;7.114;2023-07-13T00:33:13;5.70;;;2.28;;
22531;SDS011;11432;46.924;7.114;2023-07-13T00:35:39;5.50;;;2.05;;
22531;SDS011;11432;46.924;7.114;2023-07-13T00:38:05;7.70;;;2.72;;
22531;SDS011;11432;46.924;7.114;2023-07-13T00:40:30;7.15;;;2.70;;
22531;SDS011;11432;46.924;7.114;2023-07-13T00:42:57;5.22;;;2.17;;
22531;SDS011;11432;46.924;7.114;2023-07-13T00:47:49;4.60;;;2.38;;
22531;SDS011;11432;46.924;7.114;2023-07-13T00:50:15;4.18;;;1.73;;
22531;SDS011;11432;46.924;7.114;2023-07-13T00:52:43;4.03;;;1.95;;
22531;SDS011;11432;46.924;7.114;2023-07-13T00:55:11;6.13;;;2.00;;
22531;SDS011;11432;46.924;7.114;2023-07-13T00:57:38;4.43;;;1.90;;
22531;SDS011;11432;46.924;7.114;2023-07-13T01:00:05;4.15;;;1.80;;
22531;SDS011;11432;46.924;7.114;2023-07-13T01:02:34;6.15;;;1.85;;
22531;SDS011;11432;46.924;7.114;2023-07-13T01:05:15;5.47;;;1.73;;
22531;SDS011;11432;46.924;7.114;2023-07-13T01:07:43;3.17;;;1.52;;
22531;SDS011;11432;46.924;7.114;2023-07-13T01:10:10;4.53;;;1.83;;
22531;SDS011;11432;46.924;7.114;2023-07-13T01:12:36;4.40;;;1.27;;
22531;SDS011;11432;46.924;7.114;2023-07-13T01:15:02;3.70;;;1.42;;
22531;SDS011;11432;46.924;7.114;2023-07-13T01:17:29;3.05;;;1.48;;
22531;SDS011;11432;46.924;7.114;2023-07-13T01:19:56;5.07;;;1.48;;
22531;SDS011;11432;46.924;7.114;2023-07-13T01:22:21;2.80;;;1.50;;
22531;SDS011;11432;46.924;7.114;2023-07-13T01:24:52;3.95;;;1.40;;
22531;SDS011;11432;46.924;7.114;2023-07-13T01:27:23;3.75;;;1.63;;
22531;SDS011;11432;46.924;7.114;2023-07-13T01:29:50;4.47;;;1.40;;
22531;SDS011;11432;46.924;7.114;2023-07-13T01:32:21;5.65;;;1.60;;
22531;SDS011;11432;46.924;7.114;2023-07-13T01:34:52;3.80;;;1.40;;
22531;SDS011;11432;46.924;7.114;2023-07-13T01:37:22;3.60;;;1.77;;
22531;SDS011;11432;46.924;7.114;2023-07-13T01:39:50;5.00;;;1.63;;
22531;SDS011;11432;46.924;7.114;2023-07-13T01:42:15;5.93;;;2.00;;
22531;SDS011;11432;46.924;7.114;2023-07-13T01:44:41;3.58;;;1.90;;
22531;SDS011;11432;46.924;7.114;2023-07-13T01:47:06;4.45;;;1.92;;
22531;SDS011;11432;46.924;7.114;2023-07-13T01:49:32;6.22;;;2.13;;
22531;SDS011;11432;46.924;7.114;2023-07-13T01:51:58;7.10;;;1.92;;
22531;SDS011;11432;46.924;7.114;2023-07-13T01:54:23;7.80;;;2.33;;
22531;SDS011;11432;46.924;7.114;2023-07-13T01:56:49;6.78;;;2.42;;
22531;SDS011;11432;46.924;7.114;2023-07-13T01:59:14;9.20;;;2.75;;
22531;SDS011;11432;46.924;7.114;2023-07-13T02:01:40;4.70;;;2.00;;
22531;SDS011;11432;46.924;7.114;2023-07-13T02:04:05;5.65;;;1.85;;
22531;SDS011;11432;46.924;7.114;2023-07-13T02:06:31;5.45;;;2.03;;
22531;SDS011;11432;46.924;7.114;2023-07-13T02:08:57;4.13;;;1.75;;
22531;SDS011;11432;46.924;7.114;2023-07-13T02:11:23;4.07;;;2.10;;
22531;SDS011;11432;46.924;7.114;2023-07-13T02:13:49;6.28;;;1.88;;
22531;SDS011;11432;46.924;7.114;2023-07-13T02:16:15;5.45;;;2.17;;
22531;SDS011;11432;46.924;7.114;2023-07-13T02:18:41;4.45;;;1.77;;
22531;SDS011;11432;46.924;7.114;2023-07-13T02:21:07;5.05;;;1.63;;
22531;SDS011;11432;46.924;7.114;2023-07-13T02:23:32;2.55;;;1.70;;
22531;SDS011;11432;46.924;7.114;2023-07-13T02:25:58;3.00;;;1.80;;
22531;SDS011;11432;46.924;7.114;2023-07-13T02:28:25;5.40;;;2.08;;
22531;SDS011;11432;46.924;7.114;2023-07-13T02:30:51;5.50;;;1.88;;
22531;SDS011;11432;46.924;7.114;2023-07-13T02:33:17;4.70;;;2.10;;
22531;SDS011;11432;46.924;7.114;2023-07-13T02:35:42;4.53;;;1.80;;
22531;SDS011;11432;46.924;7.114;2023-07-13T02:38:08;6.97;;;2.03;;
22531;SDS011;11432;46.924;7.114;2023-07-13T02:40:34;4.72;;;1.95;;
22531;SDS011;11432;46.924;7.114;2023-07-13T02:43:00;3.10;;;1.52;;
22531;SDS011;11432;46.924;7.114;2023-07-13T02:45:26;4.03;;;1.90;;
22531;SDS011;11432;46.924;7.114;2023-07-13T02:47:52;3.72;;;1.73;;
22531;SDS011;11432;46.924;7.114;2023-07-13T02:50:18;6.03;;;1.67;;
22531;SDS011;11432;46.924;7.114;2023-07-13T02:52:43;3.10;;;1.63;;
22531;SDS011;11432;46.924;7.114;2023-07-13T02:55:09;6.68;;;2.22;;
22531;SDS011;11432;46.924;7.114;2023-07-13T02:57:35;5.43;;;2.10;;
22531;SDS011;11432;46.924;7.114;2023-07-13T03:00:01;3.80;;;1.90;;
22531;SDS011;11432;46.924;7.114;2023-07-13T03:02:30;3.97;;;1.60;;
22531;SDS011;11432;46.924;7.114;2023-07-13T03:04:57;3.22;;;1.50;;
22531;SDS011;11432;46.924;7.114;2023-07-13T03:07:23;4.53;;;1.88;;
22531;SDS011;11432;46.924;7.114;2023-07-13T03:09:53;6.57;;;2.00;;
22531;SDS011;11432;46.924;7.114;2023-07-13T03:12:21;4.55;;;1.58;;
22531;SDS011;11432;46.924;7.114;2023-07-13T03:14:47;2.90;;;1.25;;
22531;SDS011;11432;46.924;7.114;2023-07-13T03:17:12;4.30;;;1.48;;
22531;SDS011;11432;46.924;7.114;2023-07-13T03:19:38;4.45;;;1.45;;
22531;SDS011;11432;46.924;7.114;2023-07-13T03:22:03;2.55;;;1.60;;
22531;SDS011;11432;46.924;7.114;2023-07-13T03:24:29;4.72;;;1.70;;
22531;SDS011;11432;46.924;7.114;2023-07-13T03:26:57;3.45;;;1.48;;
22531;SDS011;11432;46.924;7.114;2023-07-13T03:29:22;3.70;;;1.40;;
22531;SDS011;11432;46.924;7.114;2023-07-13T03:31:48;3.10;;;1.70;;
22531;SDS011;11432;46.924;7.114;2023-07-13T03:34:13;3.00;;;1.50;;
22531;SDS011;11432;46.924;7.114;2023-07-13T03:36:39;4.03;;;1.35;;
22531;SDS011;11432;46.924;7.114;2023-07-13T03:39:05;4.03;;;1.50;;
22531;SDS011;11432;46.924;7.114;2023-07-13T03:41:33;3.15;;;1.25;;
22531;SDS011;11432;46.924;7.114;2023-07-13T03:43:59;4.32;;;1.40;;
22531;SDS011;11432;46.924;7.114;2023-07-13T03:46:24;2.95;;;1.30;;
22531;SDS011;11432;46.924;7.114;2023-07-13T03:48:50;3.63;;;1.50;;
22531;SDS011;11432;46.924;7.114;2023-07-13T03:51:16;4.22;;;1.85;;
22531;SDS011;11432;46.924;7.114;2023-07-13T03:53:43;3.83;;;1.48;;
22531;SDS011;11432;46.924;7.114;2023-07-13T03:56:10;3.17;;;1.23;;
22531;SDS011;11432;46.924;7.114;2023-07-13T03:58:37;5.25;;;1.70;;
22531;SDS011;11432;46.924;7.114;2023-07-13T04:01:05;4.55;;;2.00;;
22531;SDS011;11432;46.924;7.114;2023-07-13T04:03:33;4.03;;;1.35;;
22531;SDS011;11432;46.924;7.114;2023-07-13T04:05:59;5.00;;;1.35;;
22531;SDS011;11432;46.924;7.114;2023-07-13T04:08:29;3.42;;;1.23;;
22531;SDS011;11432;46.924;7.114;2023-07-13T04:10:57;3.92;;;1.30;;
22531;SDS011;11432;46.924;7.114;2023-07-13T04:13:24;3.22;;;1.55;;
22531;SDS011;11432;46.924;7.114;2023-07-13T04:15:50;3.10;;;1.25;;
22531;SDS011;11432;46.924;7.114;2023-07-13T04:18:16;3.10;;;1.52;;
22531;SDS011;11432;46.924;7.114;2023-07-13T04:20:42;3.40;;;1.33;;
22531;SDS011;11432;46.924;7.114;2023-07-13T04:23:07;5.22;;;1.65;;
22531;SDS011;11432;46.924;7.114;2023-07-13T04:25:33;6.63;;;1.48;;
22531;SDS011;11432;46.924;7.114;2023-07-13T04:27:59;2.67;;;1.35;;
22531;SDS011;11432;46.924;7.114;2023-07-13T04:30:24;7.68;;;1.35;;
22531;SDS011;11432;46.924;7.114;2023-07-13T04:32:50;3.97;;;1.60;;
22531;SDS011;11432;46.924;7.114;2023-07-13T04:35:17;4.82;;;0.90;;
22531;SDS011;11432;46.924;7.114;2023-07-13T04:37:45;5.10;;;1.30;;
22531;SDS011;11432;46.924;7.114;2023-07-13T04:40:15;3.60;;;1.40;;
22531;SDS011;11432;46.924;7.114;2023-07-13T04:42:43;2.67;;;1.13;;
22531;SDS011;11432;46.924;7.114;2023-07-13T04:45:09;3.47;;;1.10;;
22531;SDS011;11432;46.924;7.114;2023-07-13T04:47:36;4.78;;;1.17;;
22531;SDS011;11432;46.924;7.114;2023-07-13T04:50:01;3.42;;;1.48;;
22531;SDS011;11432;46.924;7.114;2023-07-13T04:52:27;6.13;;;1.25;;
22531;SDS011;11432;46.924;7.114;2023-07-13T04:54:53;3.22;;;1.15;;
22531;SDS011;11432;46.924;7.114;2023-07-13T04:57:19;4.07;;;1.55;;
22531;SDS011;11432;46.924;7.114;2023-07-13T04:59:44;3.55;;;1.25;;
22531;SDS011;11432;46.924;7.114;2023-07-13T05:02:10;2.22;;;1.15;;
22531;SDS011;11432;46.924;7.114;2023-07-13T05:04:36;4.22;;;1.23;;
22531;SDS011;11432;46.924;7.114;2023-07-13T05:07:01;3.80;;;1.30;;
22531;SDS011;11432;46.924;7.114;2023-07-13T05:09:27;3.30;;;1.10;;
22531;SDS011;11432;46.924;7.114;2023-07-13T05:11:52;3.72;;;1.10;;
22531;SDS011;11432;46.924;7.114;2023-07-13T05:14:18;4.07;;;1.40;;
22531;SDS011;11432;46.924;7.114;2023-07-13T05:16:44;5.50;;;1.20;;
22531;SDS011;11432;46.924;7.114;2023-07-13T05:19:09;4.05;;;1.08;;
22531;SDS011;11432;46.924;7.114;2023-07-13T05:21:35;2.20;;;1.25;;
22531;SDS011;11432;46.924;7.114;2023-07-13T05:24:01;1.98;;;1.00;;
22531;SDS011;11432;46.924;7.114;2023-07-13T05:26:26;2.33;;;1.30;;
22531;SDS011;11432;46.924;7.114;2023-07-13T05:28:52;6.18;;;1.25;;
22531;SDS011;11432;46.924;7.114;2023-07-13T05:31:18;3.33;;;1.30;;
22531;SDS011;11432;46.924;7.114;2023-07-13T05:33:43;3.78;;;0.98;;
22531;SDS011;11432;46.924;7.114;2023-07-13T05:36:09;3.70;;;1.50;;
22531;SDS011;11432;46.924;7.114;2023-07-13T05:38:35;3.10;;;0.90;;
22531;SDS011;11432;46.924;7.114;2023-07-13T05:41:00;3.70;;;0.90;;
22531;SDS011;11432;46.924;7.114;2023-07-13T05:43:26;3.08;;;1.20;;
22531;SDS011;11432;46.924;7.114;2023-07-13T05:45:55;5.07;;;0.77;;
22531;SDS011;11432;46.924;7.114;2023-07-13T05:48:21;3.50;;;0.88;;
22531;SDS011;11432;46.924;7.114;2023-07-13T05:50:47;2.08;;;1.08;;
22531;SDS011;11432;46.924;7.114;2023-07-13T05:53:14;1.50;;;1.05;;
22531;SDS011;11432;46.924;7.114;2023-07-13T05:55:43;2.25;;;1.17;;
22531;SDS011;11432;46.924;7.114;2023-07-13T05:58:15;3.33;;;1.40;;
22531;SDS011;11432;46.924;7.114;2023-07-13T06:00:41;4.03;;;1.65;;
22531;SDS011;11432;46.924;7.114;2023-07-13T06:03:07;2.97;;;1.33;;
22531;SDS011;11432;46.924;7.114;2023-07-13T06:05:33;4.80;;;1.50;;
22531;SDS011;11432;46.924;7.114;2023-07-13T06:08:01;2.47;;;1.53;;
22531;SDS011;11432;46.924;7.114;2023-07-13T06:10:27;4.28;;;1.42;;
22531;SDS011;11432;46.924;7.114;2023-07-13T06:12:53;4.55;;;1.33;;
22531;SDS011;11432;46.924;7.114;2023-07-13T06:15:19;3.05;;;1.40;;
22531;SDS011;11432;46.924;7.114;2023-07-13T06:17:44;2.78;;;1.30;;
22531;SDS011;11432;46.924;7.114;2023-07-13T06:20:10;3.15;;;1.45;;
22531;SDS011;11432;46.924;7.114;2023-07-13T06:22:36;2.58;;;1.48;;
22531;SDS011;11432;46.924;7.114;2023-07-13T06:25:01;4.15;;;1.33;;
22531;SDS011;11432;46.924;7.114;2023-07-13T06:27:27;3.92;;;1.60;;
22531;SDS011;11432;46.924;7.114;2023-07-13T06:29:53;7.20;;;1.40;;
22531;SDS011;11432;46.924;7.114;2023-07-13T06:32:19;6.70;;;1.50;;
22531;SDS011;11432;46.924;7.114;2023-07-13T06:34:45;4.07;;;1.50;;
22531;SDS011;11432;46.924;7.114;2023-07-13T06:37:11;5.53;;;1.65;;
22531;SDS011;11432;46.924;7.114;2023-07-13T06:39:36;3.75;;;2.00;;
22531;SDS011;11432;46.924;7.114;2023-07-13T06:42:02;5.80;;;1.92;;
22531;SDS011;11432;46.924;7.114;2023-07-13T06:44:28;6.30;;;1.83;;
22531;SDS011;11432;46.924;7.114;2023-07-13T06:46:53;4.65;;;1.98;;
22531;SDS011;11432;46.924;7.114;2023-07-13T06:49:19;6.05;;;1.42;;
22531;SDS011;11432;46.924;7.114;2023-07-13T06:51:44;4.25;;;1.60;;
22531;SDS011;11432;46.924;7.114;2023-07-13T06:54:10;3.35;;;1.45;;
22531;SDS011;11432;46.924;7.114;2023-07-13T06:56:36;3.38;;;1.98;;
22531;SDS011;11432;46.924;7.114;2023-07-13T07:01:14;4.53;;;1.50;;
22531;SDS011;11432;46.924;7.114;2023-07-13T07:03:40;2.88;;;1.40;;
22531;SDS011;11432;46.924;7.114;2023-07-13T07:06:08;4.20;;;1.23;;
22531;SDS011;11432;46.924;7.114;2023-07-13T07:08:44;2.38;;;1.10;;
22531;SDS011;11432;46.924;7.114;2023-07-13T07:11:17;2.30;;;1.20;;
22531;SDS011;11432;46.924;7.114;2023-07-13T07:13:50;3.92;;;1.58;;
22531;SDS011;11432;46.924;7.114;2023-07-13T07:16:17;2.80;;;1.30;;
22531;SDS011;11432;46.924;7.114;2023-07-13T07:18:44;4.93;;;1.27;;
22531;SDS011;11432;46.924;7.114;2023-07-13T07:21:10;3.67;;;1.50;;
22531;SDS011;11432;46.924;7.114;2023-07-13T07:23:36;3.08;;;1.55;;
22531;SDS011;11432;46.924;7.114;2023-07-13T07:26:02;2.78;;;1.20;;
22531;SDS011;11432;46.924;7.114;2023-07-13T07:28:28;2.42;;;1.52;;
22531;SDS011;11432;46.924;7.114;2023-07-13T07:30:54;1.67;;;1.15;;
22531;SDS011;11432;46.924;7.114;2023-07-13T07:33:21;3.17;;;1.30;;
22531;SDS011;11432;46.924;7.114;2023-07-13T07:35:47;1.40;;;1.00;;
22531;SDS011;11432;46.924;7.114;2023-07-13T07:38:12;4.30;;;1.20;;
22531;SDS011;11432;46.924;7.114;2023-07-13T07:40:38;1.95;;;1.13;;
22531;SDS011;11432;46.924;7.114;2023-07-13T07:43:06;2.45;;;1.60;;
22531;SDS011;11432;46.924;7.114;2023-07-13T07:45:36;3.13;;;1.60;;
22531;SDS011;11432;46.924;7.114;2023-07-13T07:48:02;2.20;;;1.20;;
22531;SDS011;11432;46.924;7.114;2023-07-13T07:50:29;2.20;;;1.00;;
22531;SDS011;11432;46.924;7.114;2023-07-13T07:52:55;2.63;;;1.35;;
22531;SDS011;11432;46.924;7.114;2023-07-13T07:55:21;3.72;;;1.30;;
22531;SDS011;11432;46.924;7.114;2023-07-13T07:57:47;2.95;;;1.08;;
22531;SDS011;11432;46.924;7.114;2023-07-13T08:00:13;3.28;;;1.15;;
22531;SDS011;11432;46.924;7.114;2023-07-13T08:02:40;2.58;;;1.20;;
22531;SDS011;11432;46.924;7.114;2023-07-13T08:05:06;3.25;;;1.20;;
22531;SDS011;11432;46.924;7.114;2023-07-13T08:07:33;3.30;;;1.10;;
22531;SDS011;11432;46.924;7.114;2023-07-13T08:09:59;5.18;;;1.23;;
22531;SDS011;11432;46.924;7.114;2023-07-13T08:12:24;1.70;;;1.00;;
22531;SDS011;11432;46.924;7.114;2023-07-13T08:14:50;4.95;;;1.20;;
22531;SDS011;11432;46.924;7.114;2023-07-13T08:17:18;1.77;;;0.90;;
22531;SDS011;11432;46.924;7.114;2023-07-13T08:19:47;4.30;;;1.02;;
22531;SDS011;11432;46.924;7.114;2023-07-13T08:22:12;6.72;;;1.15;;
22531;SDS011;11432;46.924;7.114;2023-07-13T08:24:38;2.97;;;1.08;;
22531;SDS011;11432;46.924;7.114;2023-07-13T08:27:04;2.25;;;1.20;;
22531;SDS011;11432;46.924;7.114;2023-07-13T08:29:29;2.38;;;1.02;;
22531;SDS011;11432;46.924;7.114;2023-07-13T08:31:57;2.67;;;0.90;;
22531;SDS011;11432;46.924;7.114;2023-07-13T08:34:23;0.93;;;0.63;;
22531;SDS011;11432;46.924;7.114;2023-07-13T08:36:48;2.38;;;0.70;;
22531;SDS011;11432;46.924;7.114;2023-07-13T08:39:14;1.75;;;0.70;;
22531;SDS011;11432;46.924;7.114;2023-07-13T08:41:40;2.05;;;0.80;;
22531;SDS011;11432;46.924;7.114;2023-07-13T08:44:06;4.82;;;0.95;;
22531;SDS011;11432;46.924;7.114;2023-07-13T08:46:44;1.75;;;0.70;;
22531;SDS011;11432;46.924;7.114;2023-07-13T08:49:18;3.63;;;1.00;;
22531;SDS011;11432;46.924;7.114;2023-07-13T08:51:53;1.25;;;0.88;;
22531;SDS011;11432;46.924;7.114;2023-07-13T08:54:32;3.15;;;0.90;;
22531;SDS011;11432;46.924;7.114;2023-07-13T08:59:40;2.53;;;0.88;;
22531;SDS011;11432;46.924;7.114;2023-07-13T09:05:10;2.25;;;0.70;;
22531;SDS011;11432;46.924;7.114;2023-07-13T09:15:56;2.25;;;0.68;;
22531;SDS011;11432;46.924;7.114;2023-07-13T09:18:28;3.28;;;0.73;;
22531;SDS011;11432;46.924;7.114;2023-07-13T09:21:48;3.90;;;0.88;;
22531;SDS011;11432;46.924;7.114;2023-07-13T09:26:43;2.88;;;0.80;;
22531;SDS011;11432;46.924;7.114;2023-07-13T09:29:11;1.95;;;0.88;;
22531;SDS011;11432;46.924;7.114;2023-07-13T09:31:52;2.72;;;0.98;;
22531;SDS011;11432;46.924;7.114;2023-07-13T09:34:20;1.95;;;1.05;;
22531;SDS011;11432;46.924;7.114;2023-07-13T09:36:46;2.17;;;0.73;;
22531;SDS011;11432;46.924;7.114;2023-07-13T09:39:27;4.18;;;1.00;;
22531;SDS011;11432;46.924;7.114;2023-07-13T09:42:12;1.65;;;0.90;;
22531;SDS011;11432;46.924;7.114;2023-07-13T09:44:51;3.92;;;0.70;;
22531;SDS011;11432;46.924;7.114;2023-07-13T09:47:26;1.90;;;0.93;;
22531;SDS011;11432;46.924;7.114;2023-07-13T09:50:04;1.63;;;0.85;;
22531;SDS011;11432;46.924;7.114;2023-07-13T09:52:50;5.85;;;0.98;;
22531;SDS011;11432;46.924;7.114;2023-07-13T09:57:55;5.00;;;1.10;;
22531;SDS011;11432;46.924;7.114;2023-07-13T10:00:30;2.00;;;0.90;;
22531;SDS011;11432;46.924;7.114;2023-07-13T10:03:00;1.63;;;0.90;;
22531;SDS011;11432;46.924;7.114;2023-07-13T10:05:28;4.80;;;0.90;;
22531;SDS011;11432;46.924;7.114;2023-07-13T10:08:03;2.53;;;0.90;;
22531;SDS011;11432;46.924;7.114;2023-07-13T10:10:31;3.25;;;1.00;;
22531;SDS011;11432;46.924;7.114;2023-07-13T10:12:56;3.40;;;1.00;;
22531;SDS011;11432;46.924;7.114;2023-07-13T10:15:23;1.35;;;0.80;;
22531;SDS011;11432;46.924;7.114;2023-07-13T10:17:53;1.17;;;0.60;;
22531;SDS011;11432;46.924;7.114;2023-07-13T10:20:23;3.63;;;0.80;;
22531;SDS011;11432;46.924;7.114;2023-07-13T10:22:52;2.20;;;0.90;;
22531;SDS011;11432;46.924;7.114;2023-07-13T10:25:26;2.75;;;0.90;;
22531;SDS011;11432;46.924;7.114;2023-07-13T10:28:00;1.60;;;0.88;;
22531;SDS011;11432;46.924;7.114;2023-07-13T10:30:48;3.45;;;1.60;;
22531;SDS011;11432;46.924;7.114;2023-07-13T10:33:15;6.00;;;0.70;;
22531;SDS011;11432;46.924;7.114;2023-07-13T10:35:42;2.08;;;0.90;;
22531;SDS011;11432;46.924;7.114;2023-07-13T10:38:11;1.55;;;0.95;;
22531;SDS011;11432;46.924;7.114;2023-07-13T10:41:01;1.88;;;0.80;;
22531;SDS011;11432;46.924;7.114;2023-07-13T10:43:35;3.20;;;0.90;;
22531;SDS011;11432;46.924;7.114;2023-07-13T10:46:07;1.45;;;0.90;;
22531;SDS011;11432;46.924;7.114;2023-07-13T10:51:02;2.65;;;0.80;;
22531;SDS011;11432;46.924;7.114;2023-07-13T10:53:32;1.75;;;0.80;;
22531;SDS011;11432;46.924;7.114;2023-07-13T10:56:02;2.38;;;1.02;;
22531;SDS011;11432;46.924;7.114;2023-07-13T10:58:40;1.13;;;0.65;;
22531;SDS011;11432;46.924;7.114;2023-07-13T11:01:12;1.55;;;0.90;;
22531;SDS011;11432;46.924;7.114;2023-07-13T11:18:52;2.55;;;0.80;;
22531;SDS011;11432;46.924;7.114;2023-07-13T11:21:41;2.88;;;0.90;;
22531;SDS011;11432;46.924;7.114;2023-07-13T11:27:50;1.45;;;0.80;;
22531;SDS011;11432;46.924;7.114;2023-07-13T11:33:02;1.45;;;0.77;;
22531;SDS011;11432;46.924;7.114;2023-07-13T11:35:37;1.83;;;0.93;;
22531;SDS011;11432;46.924;7.114;2023-07-13T11:41:03;2.50;;;0.98;;
22531;SDS011;11432;46.924;7.114;2023-07-13T11:43:49;2.93;;;0.90;;
22531;SDS011;11432;46.924;7.114;2023-07-13T11:46:19;2.38;;;0.88;;
22531;SDS011;11432;46.924;7.114;2023-07-13T11:48:47;1.85;;;0.80;;
22531;SDS011;11432;46.924;7.114;2023-07-13T11:51:21;1.13;;;0.70;;
22531;SDS011;11432;46.924;7.114;2023-07-13T11:53:52;2.63;;;0.80;;
22531;SDS011;11432;46.924;7.114;2023-07-13T11:56:20;1.65;;;0.85;;
22531;SDS011;11432;46.924;7.114;2023-07-13T11:58:51;3.83;;;0.88;;
22531;SDS011;11432;46.924;7.114;2023-07-13T12:01:20;3.67;;;1.00;;
22531;SDS011;11432;46.924;7.114;2023-07-13T12:03:49;2.97;;;0.88;;
22531;SDS011;11432;46.924;7.114;2023-07-13T12:06:29;2.67;;;0.90;;
22531;SDS011;11432;46.924;7.114;2023-07-13T12:09:03;1.33;;;0.70;;
22531;SDS011;11432;46.924;7.114;2023-07-13T12:11:40;5.28;;;0.60;;
22531;SDS011;11432;46.924;7.114;2023-07-13T12:14:12;1.77;;;0.70;;
22531;SDS011;11432;46.924;7.114;2023-07-13T12:16:40;2.83;;;1.13;;
22531;SDS011;11432;46.924;7.114;2023-07-13T12:19:09;3.25;;;1.00;;
22531;SDS011;11432;46.924;7.114;2023-07-13T12:21:42;3.10;;;1.30;;
22531;SDS011;11432;46.924;7.114;2023-07-13T12:24:20;4.07;;;0.90;;
22531;SDS011;11432;46.924;7.114;2023-07-13T12:27:05;4.13;;;1.05;;
22531;SDS011;11432;46.924;7.114;2023-07-13T12:29:32;2.17;;;0.80;;
22531;SDS011;11432;46.924;7.114;2023-07-13T12:31:58;3.33;;;1.30;;
22531;SDS011;11432;46.924;7.114;2023-07-13T12:34:25;1.33;;;0.82;;
22531;SDS011;11432;46.924;7.114;2023-07-13T12:47:42;6.38;;;1.10;;
22531;SDS011;11432;46.924;7.114;2023-07-13T12:50:14;1.77;;;0.60;;
22531;SDS011;11432;46.924;7.114;2023-07-13T12:52:42;2.80;;;0.90;;
22531;SDS011;11432;46.924;7.114;2023-07-13T12:55:13;3.10;;;0.80;;
22531;SDS011;11432;46.924;7.114;2023-07-13T12:57:57;0.98;;;0.52;;
22531;SDS011;11432;46.924;7.114;2023-07-13T13:00:27;2.22;;;0.90;;
22531;SDS011;11432;46.924;7.114;2023-07-13T13:05:59;1.90;;;0.70;;
22531;SDS011;11432;46.924;7.114;2023-07-13T13:08:40;1.08;;;0.60;;
22531;SDS011;11432;46.924;7.114;2023-07-13T13:11:08;10.15;;;1.35;;
22531;SDS011;11432;46.924;7.114;2023-07-13T13:13:34;2.20;;;0.88;;
22531;SDS011;11432;46.924;7.114;2023-07-13T13:16:11;1.98;;;0.90;;
22531;SDS011;11432;46.924;7.114;2023-07-13T13:18:41;1.88;;;0.60;;
22531;SDS011;11432;46.924;7.114;2023-07-13T13:21:08;1.58;;;0.80;;
22531;SDS011;11432;46.924;7.114;2023-07-13T13:23:34;1.83;;;0.80;;
22531;SDS011;11432;46.924;7.114;2023-07-13T13:26:00;4.05;;;1.00;;
22531;SDS011;11432;46.924;7.114;2023-07-13T13:28:26;5.13;;;0.77;;
22531;SDS011;11432;46.924;7.114;2023-07-13T13:30:52;1.23;;;0.73;;
22531;SDS011;11432;46.924;7.114;2023-07-13T13:33:20;1.63;;;0.60;;
22531;SDS011;11432;46.924;7.114;2023-07-13T13:35:46;4.13;;;0.77;;
22531;SDS011;11432;46.924;7.114;2023-07-13T13:38:20;0.98;;;0.50;;
22531;SDS011;11432;46.924;7.114;2023-07-13T13:40:50;1.95;;;0.75;;
22531;SDS011;11432;46.924;7.114;2023-07-13T13:43:21;1.10;;;0.60;;
22531;SDS011;11432;46.924;7.114;2023-07-13T13:45:51;3.47;;;0.77;;
22531;SDS011;11432;46.924;7.114;2023-07-13T13:48:32;2.67;;;0.60;;
22531;SDS011;11432;46.924;7.114;2023-07-13T13:50:59;3.47;;;0.90;;
22531;SDS011;11432;46.924;7.114;2023-07-13T13:53:26;2.65;;;0.70;;
22531;SDS011;11432;46.924;7.114;2023-07-13T13:55:53;2.13;;;0.60;;
22531;SDS011;11432;46.924;7.114;2023-07-13T13:58:19;2.95;;;1.00;;
22531;SDS011;11432;46.924;7.114;2023-07-13T14:00:45;1.88;;;0.75;;
22531;SDS011;11432;46.924;7.114;2023-07-13T14:03:16;1.73;;;0.73;;
22531;SDS011;11432;46.924;7.114;2023-07-13T14:05:43;1.30;;;0.65;;
22531;SDS011;11432;46.924;7.114;2023-07-13T14:08:19;1.92;;;0.60;;
22531;SDS011;11432;46.924;7.114;2023-07-13T14:10:46;1.73;;;0.63;;
22531;SDS011;11432;46.924;7.114;2023-07-13T14:15:51;1.52;;;0.60;;
22531;SDS011;11432;46.924;7.114;2023-07-13T14:18:17;1.10;;;0.50;;
22531;SDS011;11432;46.924;7.114;2023-07-13T14:20:46;1.75;;;0.63;;
22531;SDS011;11432;46.924;7.114;2023-07-13T14:23:16;2.75;;;0.60;;
22531;SDS011;11432;46.924;7.114;2023-07-13T14:25:43;4.82;;;0.57;;
22531;SDS011;11432;46.924;7.114;2023-07-13T14:28:25;2.90;;;1.08;;
22531;SDS011;11432;46.924;7.114;2023-07-13T14:30:52;2.05;;;0.77;;
22531;SDS011;11432;46.924;7.114;2023-07-13T14:33:19;2.55;;;0.70;;
22531;SDS011;11432;46.924;7.114;2023-07-13T14:35:45;4.38;;;1.10;;
22531;SDS011;11432;46.924;7.114;2023-07-13T14:38:18;1.15;;;0.57;;
22531;SDS011;11432;46.924;7.114;2023-07-13T14:40:45;2.65;;;0.65;;
22531;SDS011;11432;46.924;7.114;2023-07-13T14:43:11;2.00;;;0.80;;
22531;SDS011;11432;46.924;7.114;2023-07-13T14:45:42;0.75;;;0.40;;
22531;SDS011;11432;46.924;7.114;2023-07-13T14:50:41;2.17;;;0.90;;
22531;SDS011;11432;46.924;7.114;2023-07-13T14:53:10;1.45;;;0.70;;
22531;SDS011;11432;46.924;7.114;2023-07-13T14:55:36;1.45;;;0.80;;
22531;SDS011;11432;46.924;7.114;2023-07-13T14:58:02;2.17;;;0.70;;
22531;SDS011;11432;46.924;7.114;2023-07-13T15:00:28;0.98;;;0.57;;
22531;SDS011;11432;46.924;7.114;2023-07-13T15:02:56;1.30;;;0.60;;
22531;SDS011;11432;46.924;7.114;2023-07-13T15:05:24;4.22;;;0.70;;
22531;SDS011;11432;46.924;7.114;2023-07-13T15:07:58;4.88;;;1.00;;
22531;SDS011;11432;46.924;7.114;2023-07-13T15:10:26;3.25;;;0.93;;
22531;SDS011;11432;46.924;7.114;2023-07-13T15:15:23;1.00;;;0.60;;
22531;SDS011;11432;46.924;7.114;2023-07-13T15:17:49;2.90;;;0.68;;
22531;SDS011;11432;46.924;7.114;2023-07-13T15:22:42;2.78;;;0.80;;
22531;SDS011;11432;46.924;7.114;2023-07-13T15:25:17;1.13;;;0.50;;
22531;SDS011;11432;46.924;7.114;2023-07-13T15:27:44;0.80;;;0.50;;
22531;SDS011;11432;46.924;7.114;2023-07-13T15:30:11;5.65;;;0.73;;
22531;SDS011;11432;46.924;7.114;2023-07-13T15:32:37;3.42;;;0.60;;
22531;SDS011;11432;46.924;7.114;2023-07-13T15:35:04;1.73;;;0.60;;
22531;SDS011;11432;46.924;7.114;2023-07-13T15:37:37;1.67;;;0.70;;
22531;SDS011;11432;46.924;7.114;2023-07-13T15:40:03;2.10;;;0.50;;
22531;SDS011;11432;46.924;7.114;2023-07-13T15:42:29;1.00;;;0.57;;
22531;SDS011;11432;46.924;7.114;2023-07-13T15:44:54;2.42;;;0.70;;
22531;SDS011;11432;46.924;7.114;2023-07-13T15:47:21;1.20;;;0.70;;
22531;SDS011;11432;46.924;7.114;2023-07-13T15:49:47;2.83;;;0.95;;
22531;SDS011;11432;46.924;7.114;2023-07-13T15:52:19;2.92;;;0.73;;
22531;SDS011;11432;46.924;7.114;2023-07-13T15:54:48;1.67;;;0.68;;
22531;SDS011;11432;46.924;7.114;2023-07-13T15:57:14;1.13;;;0.60;;
22531;SDS011;11432;46.924;7.114;2023-07-13T15:59:40;1.95;;;0.60;;
22531;SDS011;11432;46.924;7.114;2023-07-13T16:02:17;5.40;;;0.70;;
22531;SDS011;11432;46.924;7.114;2023-07-13T16:04:44;4.60;;;0.77;;
22531;SDS011;11432;46.924;7.114;2023-07-13T16:07:11;3.67;;;0.55;;
22531;SDS011;11432;46.924;7.114;2023-07-13T16:09:38;1.42;;;0.60;;